Time;durP1;ratioP1;P1;durP2;ratioP2;P2;SDS_P1;SDS_P2;PMS_P1;PMS_P2;Temp;Humidity;BMP_temperature;BMP_pressure;BME280_temperature;BME280_humidity;BME280_pressure;Samples;Min_cycle;Max_cycle;Signal;HPM_P1;HPM_P2
2023/05/29 00:01:20;;;;;;;;;10.00;10.00;;;;;22.53;33.27;101250.28;4973713;28;48721;-57
2023/05/29 00:03:46;;;;;;;;;13.00;12.75;;;;;22.49;33.02;101251.38;4982019;28;45507;-57
2023/05/29 00:06:12;;;;;;;;;12.25;11.25;;;;;22.49;33.32;101256.72;4980676;28;45379;-57
2023/05/29 00:08:37;;;;;;;;;11.00;11.00;;;;;22.46;33.10;101251.56;4982070;28;45608;-57
2023/05/29 00:11:03;;;;;;;;;11.75;10.50;;;;;22.42;33.60;101241.97;4997036;28;54054;-57
2023/05/29 00:13:28;;;;;;;;;11.75;9.50;;;;;22.37;33.41;101240.41;4981988;28;45372;-57
2023/05/29 00:15:53;;;;;;;;;13.00;12.00;;;;;22.35;33.30;101242.28;4982023;28;45235;-57
2023/05/29 00:18:19;;;;;;;;;14.75;12.50;;;;;22.32;33.62;101250.47;4981688;28;48743;-57
2023/05/29 00:20:45;;;;;;;;;10.75;9.00;;;;;22.29;34.00;101249.78;4982039;28;45458;-57
2023/05/29 00:23:10;;;;;;;;;14.00;11.75;;;;;22.24;33.87;101250.91;4981832;28;45503;-57
2023/05/29 00:25:36;;;;;;;;;11.00;9.75;;;;;22.21;33.56;101258.25;4985999;28;45304;-57
2023/05/29 00:28:01;;;;;;;;;10.50;10.50;;;;;22.14;33.74;101249.69;4985638;28;45231;-57
2023/05/29 00:30:27;;;;;;;;;13.00;10.25;;;;;22.13;34.12;101256.00;4981989;28;45466;-57
2023/05/29 00:32:52;;;;;;;;;14.00;12.50;;;;;22.12;33.50;101256.06;4980964;28;45290;-57
2023/05/29 00:35:18;;;;;;;;;9.50;9.50;;;;;22.07;34.00;101259.00;4996716;28;45327;-57
2023/05/29 00:37:43;;;;;;;;;10.25;8.25;;;;;22.05;34.05;101253.72;4981665;28;45566;-57
2023/05/29 00:40:10;;;;;;;;;12.75;12.25;;;;;22.03;33.76;101257.44;4972292;28;45428;-57
2023/05/29 00:42:35;;;;;;;;;12.50;10.25;;;;;21.97;34.36;101255.09;4978251;28;45312;-57
2023/05/29 00:45:00;;;;;;;;;13.50;13.50;;;;;21.96;34.32;101258.72;4981802;28;45415;-57
2023/05/29 00:47:26;;;;;;;;;12.00;9.00;;;;;21.92;34.03;101256.22;4981642;28;45267;-57
2023/05/29 00:49:51;;;;;;;;;11.00;11.00;;;;;21.89;34.61;101247.50;4972123;28;45525;-57
2023/05/29 00:52:17;;;;;;;;;12.50;12.00;;;;;21.86;34.49;101255.66;4977812;28;45320;-57
2023/05/29 00:54:44;;;;;;;;;9.00;8.50;;;;;21.83;34.05;101246.00;4981638;28;45356;-57
2023/05/29 00:57:10;;;;;;;;;9.75;9.75;;;;;21.73;34.42;101242.94;4980546;28;45523;-57
2023/05/29 00:59:35;;;;;;;;;10.75;8.50;;;;;21.77;34.76;101249.00;4981480;28;45390;-57
2023/05/29 01:02:02;;;;;;;;;11.75;9.25;;;;;21.72;34.12;101254.63;4993144;28;45877;-57
2023/05/29 01:04:27;;;;;;;;;16.00;11.00;;;;;21.70;34.49;101259.16;4986849;28;45246;-57
2023/05/29 01:06:53;;;;;;;;;12.50;8.50;;;;;21.66;34.83;101262.94;4981068;28;45664;-57
2023/05/29 01:09:18;;;;;;;;;14.25;10.00;;;;;21.59;34.34;101250.84;4981434;28;46119;-57
2023/05/29 01:12:00;;;;;;;;;12.00;11.25;;;;;21.61;34.86;101262.34;4996298;28;45513;-57
2023/05/29 01:14:52;;;;;;;;;12.50;9.50;;;;;21.56;34.88;101262.56;4981379;28;45309;-57
2023/05/29 01:17:25;;;;;;;;;11.75;10.00;;;;;21.54;34.57;101264.41;4985127;28;45576;-57
2023/05/29 01:20:26;;;;;;;;;9.50;9.25;;;;;21.51;34.81;101261.03;4978739;28;45403;-56
2023/05/29 01:23:07;;;;;;;;;13.25;11.25;;;;;21.47;34.90;101257.69;4941886;28;45457;-57
2023/05/29 01:25:59;;;;;;;;;10.75;10.75;;;;;21.42;35.33;101255.22;4987135;28;45444;-57
2023/05/29 01:28:27;;;;;;;;;11.25;11.25;;;;;21.37;35.03;101259.06;4944152;28;45282;-57
2023/05/29 01:30:55;;;;;;;;;10.75;10.75;;;;;21.32;35.12;101248.63;4980308;28;45376;-58
2023/05/29 01:33:20;;;;;;;;;15.00;10.50;;;;;21.31;35.46;101257.59;4968612;28;45382;-57
2023/05/29 01:35:45;;;;;;;;;12.75;10.50;;;;;21.26;34.81;101259.66;4980843;28;45322;-58
2023/05/29 01:38:11;;;;;;;;;11.25;10.50;;;;;21.25;35.06;101265.94;4980954;28;45476;-57
2023/05/29 01:40:37;;;;;;;;;11.75;10.75;;;;;21.15;35.17;101253.97;4995631;28;46255;-58
2023/05/29 01:43:03;;;;;;;;;12.75;12.00;;;;;21.18;35.21;101260.03;4995979;28;45311;-57
2023/05/29 01:45:28;;;;;;;;;11.00;7.75;;;;;21.15;35.16;101251.31;4980779;28;45302;-57
2023/05/29 01:47:54;;;;;;;;;11.00;10.00;;;;;21.13;35.69;101270.09;4980737;28;45521;-58
2023/05/29 01:50:21;;;;;;;;;8.00;8.00;;;;;21.10;35.12;101264.88;4980496;28;45314;-57
2023/05/29 01:52:47;;;;;;;;;9.00;9.00;;;;;21.08;35.80;101258.75;4980788;28;45462;-57
2023/05/29 01:55:12;;;;;;;;;10.25;8.50;;;;;21.02;36.08;101256.38;4980596;28;45297;-57
2023/05/29 01:57:38;;;;;;;;;13.50;9.75;;;;;20.99;35.55;101264.56;4980685;28;45308;-57
2023/05/29 02:00:08;;;;;;;;;10.25;10.00;;;;;20.96;35.40;101262.06;4980511;28;46114;-57
2023/05/29 02:02:41;;;;;;;;;14.75;11.50;;;;;20.91;35.59;101246.25;4980710;28;45255;-58
2023/05/29 02:05:08;;;;;;;;;11.25;11.00;;;;;20.89;35.90;101251.66;4980168;28;45334;-57
2023/05/29 02:07:34;;;;;;;;;16.25;12.25;;;;;20.85;35.60;101251.88;4980482;28;45319;-57
2023/05/29 02:10:00;;;;;;;;;11.50;10.50;;;;;20.81;36.48;101247.66;4980195;28;45349;-58
2023/05/29 02:12:25;;;;;;;;;11.00;9.50;;;;;20.77;35.72;101253.13;4980392;28;45243;-57
2023/05/29 02:14:50;;;;;;;;;14.00;10.00;;;;;20.74;36.19;101253.28;4995408;28;45751;-58
2023/05/29 02:17:16;;;;;;;;;9.75;9.00;;;;;20.64;35.84;101251.97;4980394;28;45508;-57
2023/05/29 02:19:41;;;;;;;;;9.75;9.50;;;;;20.67;36.26;101258.97;4979912;28;45338;-58
2023/05/29 02:22:07;;;;;;;;;10.50;9.50;;;;;20.60;36.07;101247.72;4980356;28;45465;-58
2023/05/29 02:24:32;;;;;;;;;14.50;12.25;;;;;20.60;36.60;101253.03;4979430;28;45240;-58
2023/05/29 02:26:58;;;;;;;;;11.75;11.75;;;;;20.55;36.67;101258.63;4991238;28;45282;-58
2023/05/29 02:29:23;;;;;;;;;15.25;12.50;;;;;20.53;36.50;101260.50;4980012;28;45312;-58
2023/05/29 02:31:49;;;;;;;;;13.00;13.00;;;;;20.49;36.63;101255.38;4980230;28;45329;-58
2023/05/29 02:34:14;;;;;;;;;10.75;9.50;;;;;20.48;36.34;101256.31;4979095;28;45332;-60
2023/05/29 02:36:39;;;;;;;;;12.25;11.00;;;;;20.43;36.58;101260.06;4995265;28;45496;-58
2023/05/29 02:39:06;;;;;;;;;12.50;8.00;;;;;20.40;36.76;101259.34;4979969;28;45421;-58
2023/05/29 02:41:31;;;;;;;;;8.50;7.00;;;;;20.37;36.50;101256.81;4980376;28;45421;-58
2023/05/29 02:43:56;;;;;;;;;14.50;11.00;;;;;20.34;36.81;101260.50;4983223;28;45824;-58
2023/05/29 02:46:22;;;;;;;;;9.50;9.00;;;;;20.33;36.67;101264.09;4983439;28;49493;-58
2023/05/29 02:48:48;;;;;;;;;10.50;9.50;;;;;20.29;36.70;101273.22;4983037;28;45298;-59
2023/05/29 02:51:13;;;;;;;;;11.75;10.50;;;;;20.26;37.00;101268.88;4983507;28;45286;-58
2023/05/29 02:53:38;;;;;;;;;11.50;10.00;;;;;20.24;36.60;101267.22;4983419;28;45315;-59
2023/05/29 02:56:04;;;;;;;;;13.25;9.75;;;;;20.21;36.99;101273.53;4983322;28;45277;-59
2023/05/29 02:58:29;;;;;;;;;12.00;10.50;;;;;20.19;37.05;101277.22;4983310;28;46352;-58
2023/05/29 03:00:55;;;;;;;;;10.50;8.25;;;;;20.16;36.89;101282.69;4983554;28;45245;-58
2023/05/29 03:03:20;;;;;;;;;12.00;10.25;;;;;20.11;37.05;101274.91;4983333;28;45256;-59
2023/05/29 03:05:46;;;;;;;;;11.75;9.00;;;;;20.07;36.80;101268.84;4982907;28;45239;-59
2023/05/29 03:08:12;;;;;;;;;9.00;9.00;;;;;20.01;37.25;101274.44;4983003;28;46203;-58
2023/05/29 03:10:38;;;;;;;;;10.50;9.75;;;;;19.99;36.93;101276.34;4983049;28;45322;-58
2023/05/29 03:13:03;;;;;;;;;10.50;8.50;;;;;19.96;37.09;101276.47;4983249;28;45309;-57
2023/05/29 03:15:29;;;;;;;;;11.50;9.75;;;;;19.91;37.17;101274.03;4981640;28;45334;-57
2023/05/29 03:17:54;;;;;;;;;15.25;9.00;;;;;19.89;37.40;101273.22;4982919;28;45325;-57
2023/05/29 03:20:20;;;;;;;;;10.75;10.00;;;;;19.88;37.50;101275.97;4982781;28;45314;-57
2023/05/29 03:22:45;;;;;;;;;10.75;9.00;;;;;19.86;37.53;101278.69;4983035;28;45246;-58
2023/05/29 03:25:10;;;;;;;;;13.50;10.00;;;;;19.83;37.80;101281.50;4985743;28;45317;-57
2023/05/29 03:27:36;;;;;;;;;9.75;9.75;;;;;19.79;37.65;101274.53;4988704;28;46435;-58
2023/05/29 03:30:01;;;;;;;;;11.25;9.00;;;;;19.75;37.84;101273.81;4976788;28;45232;-58
2023/05/29 03:32:27;;;;;;;;;17.25;12.25;;;;;19.68;37.81;101277.66;4990631;28;45282;-57
2023/05/29 03:34:52;;;;;;;;;12.25;10.75;;;;;19.70;37.32;101290.91;4981910;28;45218;-57
2023/05/29 03:37:17;;;;;;;;;11.50;9.50;;;;;19.68;37.57;101292.81;4981964;28;45243;-57
2023/05/29 03:39:43;;;;;;;;;12.00;11.00;;;;;19.62;37.93;101288.59;4982494;28;45212;-58
2023/05/29 03:42:08;;;;;;;;;14.00;10.00;;;;;19.63;37.74;101290.34;4982760;28;45266;-57
2023/05/29 03:44:33;;;;;;;;;7.25;7.25;;;;;19.59;37.79;101294.06;4982530;28;45252;-57
2023/05/29 03:46:59;;;;;;;;;11.00;9.00;;;;;19.54;37.84;101288.94;4982469;28;45227;-58
2023/05/29 03:49:24;;;;;;;;;12.00;10.00;;;;;19.48;38.14;101299.84;4981051;28;45264;-58
2023/05/29 03:51:50;;;;;;;;;13.50;9.50;;;;;19.46;38.16;101307.91;4982685;28;45227;-58
2023/05/29 03:54:15;;;;;;;;;10.75;9.50;;;;;19.41;38.31;101304.59;4982151;28;45179;-57
2023/05/29 03:56:41;;;;;;;;;9.50;9.50;;;;;19.38;38.07;101304.69;4969148;28;46192;-57
2023/05/29 03:59:06;;;;;;;;;11.50;10.75;;;;;19.33;38.35;101312.91;4982257;28;45345;-57
2023/05/29 04:01:32;;;;;;;;;9.75;9.75;;;;;19.30;38.53;101320.16;4982562;28;45330;-57
2023/05/29 04:03:57;;;;;;;;;14.50;9.75;;;;;19.27;38.27;101317.59;4981982;28;45452;-57
2023/05/29 04:06:23;;;;;;;;;15.75;12.00;;;;;19.21;38.61;101310.75;4982019;28;47132;-58
2023/05/29 04:08:48;;;;;;;;;12.50;11.25;;;;;19.17;38.40;101312.66;4969403;28;45299;-57
2023/05/29 04:11:14;;;;;;;;;12.50;9.00;;;;;19.16;38.43;101321.59;4982143;28;45518;-58
2023/05/29 04:13:40;;;;;;;;;11.00;10.00;;;;;19.14;38.75;101326.13;4982203;28;45493;-57
2023/05/29 04:16:06;;;;;;;;;11.00;10.25;;;;;19.12;38.63;101322.66;4981761;28;45489;-57
2023/05/29 04:18:31;;;;;;;;;13.50;11.00;;;;;19.09;38.72;101324.56;4980986;28;45258;-58
2023/05/29 04:20:56;;;;;;;;;11.50;9.50;;;;;19.04;38.59;101319.41;4981677;28;50369;-57
2023/05/29 04:23:22;;;;;;;;;11.25;9.75;;;;;19.04;38.93;101326.56;4982134;28;45223;-57
2023/05/29 04:25:50;;;;;;;;;13.25;11.25;;;;;19.00;39.00;101321.38;4989935;28;45720;-58
2023/05/29 04:28:16;;;;;;;;;9.50;9.25;;;;;18.94;39.03;101328.72;4983539;28;45455;-57
2023/05/29 04:30:42;;;;;;;;;11.75;10.00;;;;;18.92;39.19;101330.59;4981964;28;45333;-58
2023/05/29 04:33:09;;;;;;;;;12.50;10.00;;;;;18.93;39.07;101332.31;4980798;28;45469;-57
2023/05/29 04:35:35;;;;;;;;;12.50;10.00;;;;;18.91;39.51;101344.81;4981626;28;46599;-58
2023/05/29 04:38:01;;;;;;;;;12.25;11.75;;;;;18.87;39.08;101341.38;4981581;28;45359;-57
2023/05/29 04:40:26;;;;;;;;;11.75;9.00;;;;;18.86;39.15;101344.13;4981757;28;45523;-58
2023/05/29 04:42:52;;;;;;;;;14.00;10.25;;;;;18.80;39.17;101356.75;4981693;28;45486;-57
2023/05/29 04:45:20;;;;;;;;;10.25;9.00;;;;;18.82;39.18;101354.00;4981563;28;46313;-58
2023/05/29 04:47:45;;;;;;;;;12.00;10.00;;;;;18.79;39.36;101359.44;4981725;28;45311;-57
2023/05/29 04:50:14;;;;;;;;;11.25;11.00;;;;;18.76;39.68;101363.09;4981301;28;45231;-58
2023/05/29 04:52:40;;;;;;;;;15.00;11.00;;;;;18.73;39.07;101363.22;4981536;28;45354;-58
2023/05/29 04:55:06;;;;;;;;;13.75;11.50;;;;;18.74;39.43;101370.28;4981139;28;46076;-57
2023/05/29 04:57:31;;;;;;;;;11.75;10.25;;;;;18.73;39.39;101368.53;4968645;28;45199;-57
2023/05/29 04:59:56;;;;;;;;;14.00;13.25;;;;;18.72;39.65;101374.78;4980935;28;50823;-57
2023/05/29 05:02:22;;;;;;;;;9.50;9.00;;;;;18.71;39.73;101370.38;4967224;28;45239;-57
2023/05/29 05:04:47;;;;;;;;;18.50;15.00;;;;;18.69;39.84;101372.22;4980145;28;45996;-57
2023/05/29 05:07:15;;;;;;;;;12.25;10.50;;;;;18.68;39.73;101375.84;4981304;28;45349;-57
2023/05/29 05:09:41;;;;;;;;;14.25;11.50;;;;;18.66;39.77;101375.03;4981366;28;45335;-58
2023/05/29 05:12:06;;;;;;;;;14.75;13.25;;;;;18.65;40.08;101373.28;4981372;28;45371;-57
2023/05/29 05:14:32;;;;;;;;;19.75;18.75;;;;;18.63;39.81;101372.50;4981172;28;45373;-57
2023/05/29 05:16:57;;;;;;;;;12.75;12.25;;;;;18.63;39.77;101370.69;4980905;28;45483;-57
2023/05/29 05:19:22;;;;;;;;;13.25;12.50;;;;;18.65;39.84;101376.84;4981081;28;45397;-57
2023/05/29 05:21:48;;;;;;;;;16.00;12.25;;;;;18.63;40.02;101377.81;4980965;28;51211;-57
2023/05/29 05:24:13;;;;;;;;;14.00;13.00;;;;;18.64;40.21;101384.84;4979631;28;46034;-57
2023/05/29 05:26:38;;;;;;;;;14.25;11.75;;;;;18.65;39.99;101387.47;4991379;28;45484;-57
2023/05/29 05:29:04;;;;;;;;;14.50;13.00;;;;;18.64;40.19;101384.84;4979647;28;52199;-57
2023/05/29 05:31:29;;;;;;;;;20.75;12.75;;;;;18.63;40.23;101394.66;4980796;28;45547;-58
2023/05/29 05:33:54;;;;;;;;;12.50;11.75;;;;;18.64;40.01;101390.16;4968601;28;46046;-57
2023/05/29 05:36:20;;;;;;;;;15.75;14.50;;;;;18.62;40.34;101384.91;4977328;28;45315;-57
2023/05/29 05:38:45;;;;;;;;;15.00;13.25;;;;;18.62;40.26;101384.91;4981252;28;45286;-57
2023/05/29 05:41:11;;;;;;;;;12.25;11.25;;;;;18.65;40.19;101399.91;4980556;28;45295;-58
2023/05/29 05:43:36;;;;;;;;;17.25;12.25;;;;;18.62;40.37;101389.38;4980883;28;47250;-57
2023/05/29 05:46:02;;;;;;;;;14.75;11.50;;;;;18.63;40.11;101386.66;4980663;28;45256;-57
2023/05/29 05:48:27;;;;;;;;;15.25;13.25;;;;;18.67;40.30;101406.03;4981013;28;45279;-57
2023/05/29 05:50:52;;;;;;;;;14.75;11.50;;;;;18.67;40.48;101411.38;4980444;28;45259;-57
2023/05/29 05:53:18;;;;;;;;;14.00;13.25;;;;;18.68;40.20;101407.78;4980234;28;62056;-58
2023/05/29 05:55:43;;;;;;;;;13.75;12.00;;;;;18.69;40.70;101409.50;4980355;28;45179;-57
2023/05/29 05:58:09;;;;;;;;;10.25;9.25;;;;;18.68;40.72;101407.78;4980709;28;45290;-58
2023/05/29 06:00:34;;;;;;;;;15.25;15.25;;;;;18.70;40.59;101402.41;4980779;28;45227;-57
2023/05/29 06:03:00;;;;;;;;;15.25;11.50;;;;;18.70;40.55;101413.91;4980563;28;45318;-57
2023/05/29 06:05:26;;;;;;;;;11.50;11.00;;;;;18.71;40.80;101418.31;4969468;28;45236;-58
2023/05/29 06:07:51;;;;;;;;;15.25;13.25;;;;;18.73;40.59;101413.81;4980661;28;45401;-58
2023/05/29 06:10:17;;;;;;;;;17.00;14.25;;;;;18.72;40.83;101414.72;4975344;28;45320;-57
2023/05/29 06:12:42;;;;;;;;;13.25;11.50;;;;;18.74;40.80;101418.22;4972360;28;46013;-57
2023/05/29 06:15:08;;;;;;;;;14.75;14.50;;;;;18.75;40.68;101427.03;4979886;28;45471;-57
2023/05/29 06:17:34;;;;;;;;;13.00;12.25;;;;;18.76;40.77;101426.97;4980572;28;45325;-57
2023/05/29 06:20:00;;;;;;;;;15.25;13.25;;;;;18.78;40.88;101418.94;4979870;28;45468;-58
2023/05/29 06:22:25;;;;;;;;;17.75;15.50;;;;;18.79;40.70;101421.56;4980255;28;45452;-57
2023/05/29 06:24:51;;;;;;;;;17.00;13.50;;;;;18.81;40.99;101427.66;4980343;28;45312;-57
2023/05/29 06:27:16;;;;;;;;;16.25;14.75;;;;;18.82;41.13;101431.22;4988748;28;45172;-57
2023/05/29 06:29:41;;;;;;;;;17.25;15.00;;;;;18.82;40.85;101433.88;4975613;28;45256;-57
2023/05/29 06:32:07;;;;;;;;;14.50;12.75;;;;;18.84;41.31;101438.22;4969234;28;46111;-57
2023/05/29 06:34:32;;;;;;;;;16.00;12.75;;;;;18.86;41.08;101440.81;4978527;28;55268;-57
2023/05/29 06:36:57;;;;;;;;;15.50;13.25;;;;;18.87;41.07;101436.34;4980232;28;45228;-57
2023/05/29 06:39:23;;;;;;;;;13.50;12.50;;;;;18.90;40.93;101445.13;4978687;28;45368;-58
2023/05/29 06:41:49;;;;;;;;;18.00;13.50;;;;;18.89;41.26;101443.34;4978795;28;47087;-57
2023/05/29 06:44:14;;;;;;;;;17.75;13.50;;;;;18.93;41.16;101449.47;4979663;28;45258;-58
2023/05/29 06:46:39;;;;;;;;;11.25;11.25;;;;;18.95;41.03;101439.63;4980302;28;45294;-57
2023/05/29 06:49:05;;;;;;;;;15.75;14.75;;;;;18.97;41.10;101445.78;4979767;28;45171;-58
2023/05/29 06:51:32;;;;;;;;;14.00;12.75;;;;;18.98;41.38;101439.50;4980007;28;46077;-57
2023/05/29 06:53:57;;;;;;;;;15.00;13.25;;;;;18.99;41.28;101447.47;4979809;28;45443;-58
2023/05/29 06:56:23;;;;;;;;;13.25;12.75;;;;;19.00;40.91;101453.63;4979896;28;45428;-57
2023/05/29 06:58:48;;;;;;;;;14.00;12.50;;;;;19.04;41.29;101449.06;4979801;28;45559;-57
2023/05/29 07:01:14;;;;;;;;;19.75;18.00;;;;;19.04;41.16;101452.59;4995045;28;46174;-58
2023/05/29 07:03:40;;;;;;;;;20.00;14.75;;;;;19.08;41.35;101456.91;4979436;28;45262;-57
2023/05/29 07:06:06;;;;;;;;;16.25;13.25;;;;;19.09;41.47;101458.59;4979362;28;47700;-57
2023/05/29 07:08:31;;;;;;;;;15.00;13.00;;;;;19.10;41.30;101452.34;4979645;28;45476;-57
2023/05/29 07:10:56;;;;;;;;;8.75;8.00;;;;;19.13;41.08;101459.34;4979561;28;46225;-57
2023/05/29 07:13:24;;;;;;;;;16.75;11.75;;;;;19.14;41.14;101453.09;4979624;28;45402;-58
2023/05/29 07:15:50;;;;;;;;;15.75;11.00;;;;;19.19;41.39;101450.28;4979834;28;45319;-57
2023/05/29 07:18:15;;;;;;;;;14.75;14.00;;;;;19.19;41.00;101447.59;4979376;28;45389;-58
2023/05/29 07:20:40;;;;;;;;;14.50;12.75;;;;;19.24;41.22;101458.94;4979580;28;45330;-57
2023/05/29 07:23:06;;;;;;;;;13.75;10.25;;;;;19.24;41.59;101457.13;4979497;28;45174;-57
2023/05/29 07:25:32;;;;;;;;;21.25;18.00;;;;;19.25;41.16;101448.22;4985438;28;45394;-57
2023/05/29 07:27:57;;;;;;;;;9.75;8.00;;;;;19.30;41.39;101454.25;4984471;28;45492;-57
2023/05/29 07:30:23;;;;;;;;;13.50;11.50;;;;;19.34;41.33;101462.97;4982826;28;47109;-57
2023/05/29 07:32:48;;;;;;;;;14.00;12.00;;;;;19.37;41.25;101460.22;4981817;28;45274;-57
2023/05/29 07:35:13;;;;;;;;;14.25;14.00;;;;;19.40;41.28;101460.06;4982813;28;45327;-58
2023/05/29 07:37:38;;;;;;;;;14.50;13.00;;;;;19.42;41.48;101455.56;4982733;28;45578;-58
2023/05/29 07:40:07;;;;;;;;;16.25;14.75;;;;;19.46;41.53;101458.97;4982607;28;45398;-58
2023/05/29 07:42:33;;;;;;;;;14.50;11.50;;;;;19.47;41.70;101450.03;4982711;28;45211;-57
2023/05/29 07:44:58;;;;;;;;;16.25;13.75;;;;;19.51;41.46;101459.66;4982609;28;45519;-57
2023/05/29 07:47:24;;;;;;;;;12.50;12.00;;;;;19.54;41.61;101453.34;4982669;28;45243;-58
2023/05/29 07:49:50;;;;;;;;;18.50;16.00;;;;;19.58;41.47;101447.78;4982391;28;45858;-58
2023/05/29 07:52:15;;;;;;;;;11.25;10.25;;;;;19.61;41.28;101458.34;4982354;28;45221;-57
2023/05/29 07:54:41;;;;;;;;;12.50;12.00;;;;;19.68;41.40;101463.44;4982473;28;45298;-57
2023/05/29 07:57:09;;;;;;;;;14.50;12.50;;;;;19.69;41.42;101458.03;4982321;28;45563;-57
2023/05/29 07:59:41;;;;;;;;;13.00;12.50;;;;;19.74;41.42;101458.69;4981044;28;47239;-57
2023/05/29 08:02:06;;;;;;;;;12.50;12.50;;;;;19.79;41.60;101464.72;4982182;28;45515;-57
2023/05/29 08:04:32;;;;;;;;;15.00;14.50;;;;;19.83;41.19;101461.97;4982067;28;45403;-57
2023/05/29 08:06:58;;;;;;;;;16.50;14.25;;;;;19.86;40.91;101461.81;4997210;28;45981;-58
2023/05/29 08:09:24;;;;;;;;;14.50;11.25;;;;;19.90;41.49;101463.41;4982227;28;46179;-57
2023/05/29 08:11:49;;;;;;;;;15.25;9.75;;;;;19.96;41.60;101457.81;4981781;28;46571;-61
2023/05/29 08:14:15;;;;;;;;;14.50;11.25;;;;;20.01;41.18;101460.31;4982246;28;45375;-58
2023/05/29 08:16:41;;;;;;;;;15.00;13.00;;;;;20.05;40.87;101465.47;4981921;28;45310;-57
2023/05/29 08:19:06;;;;;;;;;15.50;13.50;;;;;20.10;41.05;101459.91;4981802;28;46222;-57
2023/05/29 08:21:32;;;;;;;;;18.25;13.00;;;;;20.13;41.35;101457.13;4981947;28;45416;-58
2023/05/29 08:23:58;;;;;;;;;16.00;13.50;;;;;20.17;41.50;101452.53;4982181;28;45175;-58
2023/05/29 08:26:23;;;;;;;;;15.50;13.50;;;;;20.22;41.08;101461.19;4992191;28;45226;-57
2023/05/29 08:28:49;;;;;;;;;16.50;15.00;;;;;20.24;41.42;101470.00;4980607;28;46033;-58
2023/05/29 08:31:15;;;;;;;;;12.50;11.75;;;;;20.31;40.93;101466.13;4981888;28;45311;-57
2023/05/29 08:33:40;;;;;;;;;13.75;12.50;;;;;20.30;41.38;101456.38;4980814;28;45298;-58
2023/05/29 08:36:06;;;;;;;;;11.00;10.25;;;;;20.38;41.65;101474.75;4981857;28;45152;-58
2023/05/29 08:38:31;;;;;;;;;18.00;14.75;;;;;20.43;41.18;101478.06;4981701;28;45539;-58
2023/05/29 08:40:58;;;;;;;;;17.50;14.50;;;;;20.46;41.62;101473.47;4980655;28;45395;-57
2023/05/29 08:43:25;;;;;;;;;13.75;12.50;;;;;20.49;41.45;101471.59;4980839;28;45456;-57
2023/05/29 08:45:54;;;;;;;;;13.00;11.75;;;;;20.57;41.14;101474.78;4996356;28;45448;-58
2023/05/29 08:48:24;;;;;;;;;16.00;14.25;;;;;20.62;41.51;101475.44;4981563;28;45238;-58
2023/05/29 08:50:54;;;;;;;;;15.25;13.25;;;;;20.58;40.99;101468.53;4981376;28;45440;-57
2023/05/29 08:53:21;;;;;;;;;11.75;9.50;;;;;20.73;41.35;101477.69;4981751;28;45330;-58
2023/05/29 08:55:48;;;;;;;;;12.50;12.50;;;;;20.78;41.53;101478.34;4981076;28;45483;-58
2023/05/29 08:58:14;;;;;;;;;16.75;14.75;;;;;20.82;41.49;101465.69;4981327;28;46187;-57
2023/05/29 09:00:40;;;;;;;;;12.50;12.50;;;;;20.87;41.36;101461.03;4981249;28;45330;-57
2023/05/29 09:03:06;;;;;;;;;12.00;11.25;;;;;20.96;40.99;101465.94;4981542;28;45335;-57
2023/05/29 09:05:32;;;;;;;;;13.25;12.50;;;;;21.00;41.22;101467.50;4979543;28;45369;-57
2023/05/29 09:07:58;;;;;;;;;13.00;11.75;;;;;21.07;41.28;101474.31;4981340;28;46064;-57
2023/05/29 09:10:25;;;;;;;;;16.25;15.50;;;;;21.14;41.29;101476.69;4981071;28;45243;-57
2023/05/29 09:12:51;;;;;;;;;16.25;13.75;;;;;21.18;41.22;101476.50;4981415;28;45266;-57
2023/05/29 09:15:21;;;;;;;;;11.50;11.25;;;;;21.24;41.09;101473.53;4974769;28;45310;-58
2023/05/29 09:17:54;;;;;;;;;13.50;12.00;;;;;21.29;41.06;101472.44;4974916;28;46198;-57
2023/05/29 09:20:24;;;;;;;;;13.00;13.00;;;;;21.37;41.07;101476.47;4981038;28;45422;-58
2023/05/29 09:22:58;;;;;;;;;16.50;14.50;;;;;21.43;41.10;101483.31;4979826;28;45232;-58
2023/05/29 09:25:26;;;;;;;;;15.75;13.00;;;;;21.50;41.05;101475.88;4984785;28;45275;-57
2023/05/29 09:28:12;;;;;;;;;10.50;10.50;;;;;21.54;41.33;101467.63;4966113;28;45442;-57
2023/05/29 09:30:43;;;;;;;;;17.50;15.25;;;;;21.59;41.16;101470.97;4961297;28;45429;-57
2023/05/29 09:33:13;;;;;;;;;14.00;14.00;;;;;21.66;41.26;101466.19;4976539;28;45256;-58
2023/05/29 09:35:41;;;;;;;;;15.50;14.25;;;;;21.72;41.01;101468.56;4961280;28;45278;-57
2023/05/29 09:38:08;;;;;;;;;12.25;12.25;;;;;21.78;41.23;101464.72;4961375;28;47100;-57
2023/05/29 09:40:36;;;;;;;;;14.25;12.75;;;;;21.81;41.16;101461.91;4961202;28;45286;-57
2023/05/29 09:43:16;;;;;;;;;15.75;14.25;;;;;21.90;40.66;101458.75;4961508;28;45276;-58
2023/05/29 09:45:49;;;;;;;;;12.50;12.00;;;;;21.96;41.05;101460.25;4960014;28;45362;-58
2023/05/29 09:48:14;;;;;;;;;17.50;15.75;;;;;22.06;40.88;101458.84;4961231;28;47287;-57
2023/05/29 09:50:39;;;;;;;;;14.00;11.75;;;;;22.13;40.91;101464.72;4960660;28;45394;-57
2023/05/29 09:53:24;;;;;;;;;13.00;12.75;;;;;22.22;40.85;101461.56;4976492;28;45545;-58
2023/05/29 09:55:51;;;;;;;;;12.50;12.50;;;;;22.31;40.74;101462.91;4961105;28;45311;-57
2023/05/29 09:58:20;;;;;;;;;16.25;12.75;;;;;22.40;40.99;101462.47;4961029;28;47238;-57
2023/05/29 10:00:47;;;;;;;;;19.00;15.00;;;;;22.53;40.90;101469.84;4961014;28;45284;-58
2023/05/29 10:03:13;;;;;;;;;15.50;15.00;;;;;22.62;40.86;101455.97;4961234;28;45428;-58
2023/05/29 10:05:39;;;;;;;;;19.25;16.00;;;;;22.75;40.77;101455.31;4963914;28;45529;-57
2023/05/29 10:08:12;;;;;;;;;16.25;14.50;;;;;22.88;40.77;101456.38;4960952;28;46253;-57
2023/05/29 10:10:41;;;;;;;;;15.25;13.00;;;;;23.00;40.62;101455.66;4960961;28;45393;-57
2023/05/29 10:13:11;;;;;;;;;16.00;14.00;;;;;23.18;40.85;101458.31;4960888;28;45311;-58
2023/05/29 10:15:39;;;;;;;;;16.00;15.00;;;;;23.36;40.94;101453.75;4960752;28;45358;-57
2023/05/29 10:18:13;;;;;;;;;15.75;15.00;;;;;23.58;40.74;101450.66;4960659;28;45549;-58
2023/05/29 10:20:40;;;;;;;;;19.50;16.00;;;;;23.83;40.63;101443.88;4960728;28;45390;-58
2023/05/29 10:23:07;;;;;;;;;20.00;16.50;;;;;24.08;40.72;101451.38;4960887;28;45548;-58
2023/05/29 10:25:35;;;;;;;;;19.00;16.50;;;;;24.33;40.83;101449.88;4977058;28;45259;-58
2023/05/29 10:28:02;;;;;;;;;17.75;16.50;;;;;24.63;40.84;101438.19;4968018;28;45347;-58
2023/05/29 10:30:53;;;;;;;;;14.25;14.25;;;;;25.07;41.24;101449.78;4960798;28;45267;-58
2023/05/29 10:33:33;;;;;;;;;15.75;15.25;;;;;25.51;40.94;101446.06;4960722;28;45303;-58
2023/05/29 10:36:10;;;;;;;;;19.00;16.25;;;;;25.98;41.33;101449.19;4960558;28;45281;-58
2023/05/29 10:38:36;;;;;;;;;17.75;15.00;;;;;26.51;41.56;101435.66;4960610;28;46267;-58
2023/05/29 10:41:27;;;;;;;;;16.75;15.75;;;;;27.16;41.76;101441.84;4960409;28;45292;-58
2023/05/29 10:44:03;;;;;;;;;17.00;14.75;;;;;27.76;41.32;101441.06;4960569;28;45401;-59
2023/05/29 10:46:49;;;;;;;;;19.50;17.75;;;;;28.45;41.22;101451.94;4959307;28;45336;-60
2023/05/29 10:49:18;;;;;;;;;14.75;14.75;;;;;29.08;41.20;101453.28;4951830;28;45604;-59
2023/05/29 10:51:44;;;;;;;;;18.75;18.25;;;;;29.68;40.93;101445.63;4959275;28;45267;-60
2023/05/29 10:54:10;;;;;;;;;14.00;13.50;;;;;30.29;41.19;101449.53;4960494;28;45330;-60
2023/05/29 10:56:36;;;;;;;;;15.50;14.75;;;;;30.86;40.28;101451.81;4960513;28;45232;-59
2023/05/29 10:59:02;;;;;;;;;20.25;18.50;;;;;31.42;39.90;101445.81;4975112;28;46149;-59
2023/05/29 11:01:30;;;;;;;;;19.50;19.50;;;;;31.97;40.02;101446.25;4959153;28;45467;-59
2023/05/29 11:04:17;;;;;;;;;20.50;19.00;;;;;32.55;40.08;101442.53;4962602;28;45311;-59
2023/05/29 11:06:43;;;;;;;;;16.00;16.00;;;;;33.06;39.69;101448.47;4967261;28;45458;-59
2023/05/29 11:09:37;;;;;;;;;17.75;17.00;;;;;33.68;38.98;101437.69;4963532;28;46240;-60
2023/05/29 11:12:25;;;;;;;;;18.25;18.25;;;;;34.19;38.51;101434.38;4961846;28;45232;-59